sensor_id;sensor_type;location;lat;lon;timestamp;pressure;altitude;pressure_sealevel;temperature;humidity
20027;BME280;10174;42.688;23.344;2023-04-15T00:01:23;94520.81;;;7.80;69.76
20027;BME280;10174;42.688;23.344;2023-04-15T00:03:53;94521.31;;;7.61;70.71
20027;BME280;10174;42.688;23.344;2023-04-15T00:06:22;94560.84;;;7.49;70.18
20027;BME280;10174;42.688;23.344;2023-04-15T00:08:48;94549.00;;;7.29;71.25
20027;BME280;10174;42.688;23.344;2023-04-15T00:11:15;94579.53;;;7.44;70.99
20027;BME280;10174;42.688;23.344;2023-04-15T00:13:41;94569.91;;;7.48;70.73
20027;BME280;10174;42.688;23.344;2023-04-15T00:16:07;94557.13;;;7.60;70.48
20027;BME280;10174;42.688;23.344;2023-04-15T00:18:33;94443.38;;;7.01;69.21
20027;BME280;10174;42.688;23.344;2023-04-15T00:20:59;94539.53;;;7.75;69.37
20027;BME280;10174;42.688;23.344;2023-04-15T00:23:25;94525.38;;;7.74;69.22
20027;BME280;10174;42.688;23.344;2023-04-15T00:25:51;94562.59;;;8.01;68.18
20027;BME280;10174;42.688;23.344;2023-04-15T00:28:16;94566.34;;;8.00;69.99
20027;BME280;10174;42.688;23.344;2023-04-15T00:30:42;94560.72;;;7.97;70.44
20027;BME280;10174;42.688;23.344;2023-04-15T00:33:07;94548.94;;;8.03;70.05
20027;BME280;10174;42.688;23.344;2023-04-15T00:35:33;94566.34;;;8.06;70.30
20027;BME280;10174;42.688;23.344;2023-04-15T00:37:59;94542.25;;;7.95;69.87
20027;BME280;10174;42.688;23.344;2023-04-15T00:40:25;94550.81;;;8.08;69.64
20027;BME280;10174;42.688;23.344;2023-04-15T00:42:52;94465.94;;;7.46;70.68
20027;BME280;10174;42.688;23.344;2023-04-15T00:45:17;94484.91;;;7.45;70.45
20027;BME280;10174;42.688;23.344;2023-04-15T00:47:43;94552.94;;;7.85;70.43
20027;BME280;10174;42.688;23.344;2023-04-15T00:50:10;94559.09;;;7.85;70.32
20027;BME280;10174;42.688;23.344;2023-04-15T00:52:37;94569.56;;;8.02;69.10
20027;BME280;10174;42.688;23.344;2023-04-15T00:55:05;94544.94;;;7.90;69.17
20027;BME280;10174;42.688;23.344;2023-04-15T00:57:30;94554.03;;;7.99;70.41
20027;BME280;10174;42.688;23.344;2023-04-15T00:59:56;94561.53;;;7.97;71.17
20027;BME280;10174;42.688;23.344;2023-04-15T01:02:22;94571.13;;;7.93;71.72
20027;BME280;10174;42.688;23.344;2023-04-15T01:04:48;94564.19;;;7.92;71.45
20027;BME280;10174;42.688;23.344;2023-04-15T01:07:14;94575.44;;;8.05;70.83
20027;BME280;10174;42.688;23.344;2023-04-15T01:09:40;94549.22;;;7.91;71.13
20027;BME280;10174;42.688;23.344;2023-04-15T01:12:06;94565.25;;;7.91;72.37
20027;BME280;10174;42.688;23.344;2023-04-15T01:14:34;94572.75;;;7.94;72.61
20027;BME280;10174;42.688;23.344;2023-04-15T01:17:00;94579.69;;;7.90;72.69
20027;BME280;10174;42.688;23.344;2023-04-15T01:19:25;94586.63;;;7.86;73.40
20027;BME280;10174;42.688;23.344;2023-04-15T01:21:51;94548.09;;;7.72;72.32
20027;BME280;10174;42.688;23.344;2023-04-15T01:24:17;94555.84;;;7.73;73.19
20027;BME280;10174;42.688;23.344;2023-04-15T01:26:44;94544.38;;;7.73;72.73
20027;BME280;10174;42.688;23.344;2023-04-15T01:29:09;94558.81;;;7.82;72.72
20027;BME280;10174;42.688;23.344;2023-04-15T01:31:34;94519.66;;;7.45;73.65
20027;BME280;10174;42.688;23.344;2023-04-15T01:34:00;94561.94;;;7.53;74.37
20027;BME280;10174;42.688;23.344;2023-04-15T01:36:26;94572.06;;;7.41;75.02
20027;BME280;10174;42.688;23.344;2023-04-15T01:38:52;94446.94;;;6.59;74.95
20027;BME280;10174;42.688;23.344;2023-04-15T01:41:23;94566.13;;;7.28;75.25
20027;BME280;10174;42.688;23.344;2023-04-15T01:43:49;94566.13;;;7.28;75.71
20027;BME280;10174;42.688;23.344;2023-04-15T01:46:15;94554.34;;;7.29;74.74
20027;BME280;10174;42.688;23.344;2023-04-15T01:48:41;94575.78;;;7.45;74.38
20027;BME280;10174;42.688;23.344;2023-04-15T01:51:06;94548.13;;;7.13;74.59
20027;BME280;10174;42.688;23.344;2023-04-15T01:53:32;94580.47;;;7.17;75.53
20027;BME280;10174;42.688;23.344;2023-04-15T01:55:58;94578.81;;;7.06;76.84
20027;BME280;10174;42.688;23.344;2023-04-15T01:58:24;94569.16;;;7.00;75.62
20027;BME280;10174;42.688;23.344;2023-04-15T02:00:49;94567.22;;;6.90;75.70
20027;BME280;10174;42.688;23.344;2023-04-15T02:03:15;94593.09;;;6.84;76.88
20027;BME280;10174;42.688;23.344;2023-04-15T02:05:41;94572.94;;;6.66;77.41
20027;BME280;10174;42.688;23.344;2023-04-15T02:08:06;94579.59;;;6.64;77.53
20027;BME280;10174;42.688;23.344;2023-04-15T02:10:32;94583.38;;;6.68;78.18
20027;BME280;10174;42.688;23.344;2023-04-15T02:12:57;94588.72;;;6.68;78.54
20027;BME280;10174;42.688;23.344;2023-04-15T02:15:23;94584.47;;;6.72;78.57
20027;BME280;10174;42.688;23.344;2023-04-15T02:17:48;94594.56;;;6.65;79.57
20027;BME280;10174;42.688;23.344;2023-04-15T02:20:17;94570.47;;;6.54;80.30
20027;BME280;10174;42.688;23.344;2023-04-15T02:22:43;94574.00;;;6.65;79.88
20027;BME280;10174;42.688;23.344;2023-04-15T02:25:08;94570.44;;;6.49;80.96
20027;BME280;10174;42.688;23.344;2023-04-15T02:27:35;94437.47;;;5.71;80.19
20027;BME280;10174;42.688;23.344;2023-04-15T02:30:00;94571.22;;;6.50;80.39
20027;BME280;10174;42.688;23.344;2023-04-15T02:32:26;94574.06;;;6.38;80.05
20027;BME280;10174;42.688;23.344;2023-04-15T02:34:51;94556.78;;;6.13;80.59
20027;BME280;10174;42.688;23.344;2023-04-15T02:37:17;94574.53;;;6.30;80.91
20027;BME280;10174;42.688;23.344;2023-04-15T02:39:44;94494.00;;;5.73;80.66
20027;BME280;10174;42.688;23.344;2023-04-15T02:42:10;94573.19;;;6.00;81.13
20027;BME280;10174;42.688;23.344;2023-04-15T02:44:35;94582.41;;;5.92;82.03
20027;BME280;10174;42.688;23.344;2023-04-15T02:47:01;94578.84;;;5.81;81.18
20027;BME280;10174;42.688;23.344;2023-04-15T02:49:26;94532.09;;;5.46;80.88
20027;BME280;10174;42.688;23.344;2023-04-15T02:51:54;94494.47;;;5.15;81.89
20027;BME280;10174;42.688;23.344;2023-04-15T02:54:20;94448.59;;;4.86;82.11
20027;BME280;10174;42.688;23.344;2023-04-15T02:56:49;94577.38;;;5.68;81.13
20027;BME280;10174;42.688;23.344;2023-04-15T02:59:16;94563.19;;;5.63;80.83
20027;BME280;10174;42.688;23.344;2023-04-15T03:01:41;94592.00;;;5.66;81.15
20027;BME280;10174;42.688;23.344;2023-04-15T03:04:07;94583.59;;;5.52;81.28
20027;BME280;10174;42.688;23.344;2023-04-15T03:06:33;94596.09;;;5.51;80.68
20027;BME280;10174;42.688;23.344;2023-04-15T03:08:59;94595.34;;;5.34;79.44
20027;BME280;10174;42.688;23.344;2023-04-15T03:11:27;94594.78;;;5.32;79.11
20027;BME280;10174;42.688;23.344;2023-04-15T03:13:53;94613.50;;;5.37;79.05
20027;BME280;10174;42.688;23.344;2023-04-15T03:16:18;94612.41;;;5.33;78.82
20027;BME280;10174;42.688;23.344;2023-04-15T03:18:43;94611.69;;;5.21;76.62
20027;BME280;10174;42.688;23.344;2023-04-15T03:21:09;94607.00;;;5.28;78.23
20027;BME280;10174;42.688;23.344;2023-04-15T03:23:34;94587.59;;;5.10;79.40
20027;BME280;10174;42.688;23.344;2023-04-15T03:26:03;94596.63;;;5.09;79.29
20027;BME280;10174;42.688;23.344;2023-04-15T03:28:29;94621.16;;;5.11;79.16
20027;BME280;10174;42.688;23.344;2023-04-15T03:30:54;94578.06;;;4.75;78.62
20027;BME280;10174;42.688;23.344;2023-04-15T03:33:20;94588.13;;;4.73;79.39
20027;BME280;10174;42.688;23.344;2023-04-15T03:35:46;94636.34;;;4.94;79.82
20027;BME280;10174;42.688;23.344;2023-04-15T03:38:11;94633.13;;;4.92;79.90
20027;BME280;10174;42.688;23.344;2023-04-15T03:40:39;94607.66;;;4.62;80.49
20027;BME280;10174;42.688;23.344;2023-04-15T03:43:04;94642.09;;;4.86;80.28
20027;BME280;10174;42.688;23.344;2023-04-15T03:45:30;94510.78;;;3.90;80.42
20027;BME280;10174;42.688;23.344;2023-04-15T03:47:55;94647.56;;;4.62;81.22
20027;BME280;10174;42.688;23.344;2023-04-15T03:50:21;94641.34;;;4.73;81.34
20027;BME280;10174;42.688;23.344;2023-04-15T03:52:46;94647.00;;;4.77;81.11
20027;BME280;10174;42.688;23.344;2023-04-15T03:55:12;94660.38;;;4.99;80.11
20027;BME280;10174;42.688;23.344;2023-04-15T03:57:37;94665.22;;;4.85;81.21
20027;BME280;10174;42.688;23.344;2023-04-15T04:00:05;94541.00;;;4.18;80.61
20027;BME280;10174;42.688;23.344;2023-04-15T04:02:30;94658.13;;;4.91;79.81
20027;BME280;10174;42.688;23.344;2023-04-15T04:04:56;94648.28;;;4.74;80.94
20027;BME280;10174;42.688;23.344;2023-04-15T04:07:22;94648.84;;;4.76;80.65
20027;BME280;10174;42.688;23.344;2023-04-15T04:09:48;94665.69;;;4.99;79.99
20027;BME280;10174;42.688;23.344;2023-04-15T04:12:13;94667.97;;;5.07;79.38
20027;BME280;10174;42.688;23.344;2023-04-15T04:14:39;94655.69;;;5.06;79.30
20027;BME280;10174;42.688;23.344;2023-04-15T04:17:04;94660.84;;;4.96;79.90
20027;BME280;10174;42.688;23.344;2023-04-15T04:19:29;94654.75;;;4.95;79.60
20027;BME280;10174;42.688;23.344;2023-04-15T04:21:55;94667.56;;;4.98;79.66
20027;BME280;10174;42.688;23.344;2023-04-15T04:24:21;94663.63;;;5.01;79.57
20027;BME280;10174;42.688;23.344;2023-04-15T04:26:47;94673.63;;;4.94;80.63
20027;BME280;10174;42.688;23.344;2023-04-15T04:29:12;94659.28;;;4.95;80.64
20027;BME280;10174;42.688;23.344;2023-04-15T04:31:37;94662.31;;;5.04;80.44
20027;BME280;10174;42.688;23.344;2023-04-15T04:34:03;94640.53;;;4.90;80.77
20027;BME280;10174;42.688;23.344;2023-04-15T04:36:28;94666.34;;;5.06;80.92
20027;BME280;10174;42.688;23.344;2023-04-15T04:38:54;94507.81;;;4.03;80.86
20027;BME280;10174;42.688;23.344;2023-04-15T04:41:20;94660.38;;;4.99;80.96
20027;BME280;10174;42.688;23.344;2023-04-15T04:43:45;94665.19;;;5.19;81.10
20027;BME280;10174;42.688;23.344;2023-04-15T04:46:10;94653.59;;;5.08;80.32
20027;BME280;10174;42.688;23.344;2023-04-15T04:48:36;94652.75;;;5.25;80.29
20027;BME280;10174;42.688;23.344;2023-04-15T04:51:02;94677.81;;;5.46;80.18
20027;BME280;10174;42.688;23.344;2023-04-15T04:53:27;94691.09;;;5.63;79.95
20027;BME280;10174;42.688;23.344;2023-04-15T04:55:53;94664.41;;;5.58;79.93
20027;BME280;10174;42.688;23.344;2023-04-15T04:58:18;94668.28;;;5.72;79.98
20027;BME280;10174;42.688;23.344;2023-04-15T05:00:44;94694.72;;;5.96;79.74
20027;BME280;10174;42.688;23.344;2023-04-15T05:03:10;94687.41;;;6.08;78.89
20027;BME280;10174;42.688;23.344;2023-04-15T05:05:35;94701.34;;;6.15;78.65
20027;BME280;10174;42.688;23.344;2023-04-15T05:08:03;94696.13;;;6.26;78.30
20027;BME280;10174;42.688;23.344;2023-04-15T05:10:29;94707.41;;;6.33;77.43
20027;BME280;10174;42.688;23.344;2023-04-15T05:12:55;94704.25;;;6.36;77.22
20027;BME280;10174;42.688;23.344;2023-04-15T05:15:20;94715.53;;;6.43;76.73
20027;BME280;10174;42.688;23.344;2023-04-15T05:17:46;94714.03;;;6.52;75.72
20027;BME280;10174;42.688;23.344;2023-04-15T05:20:11;94731.13;;;6.56;74.26
20027;BME280;10174;42.688;23.344;2023-04-15T05:22:37;94710.63;;;6.62;73.84
20027;BME280;10174;42.688;23.344;2023-04-15T05:25:03;94704.19;;;6.58;72.21
20027;BME280;10174;42.688;23.344;2023-04-15T05:27:29;94718.19;;;6.70;71.02
20027;BME280;10174;42.688;23.344;2023-04-15T05:29:54;94710.50;;;6.74;71.63
20027;BME280;10174;42.688;23.344;2023-04-15T05:32:20;94708.97;;;6.83;72.18
20027;BME280;10174;42.688;23.344;2023-04-15T05:34:46;94696.09;;;6.75;71.72
20027;BME280;10174;42.688;23.344;2023-04-15T05:37:11;94690.19;;;6.73;71.95
20027;BME280;10174;42.688;23.344;2023-04-15T05:39:37;94708.56;;;6.97;71.33
20027;BME280;10174;42.688;23.344;2023-04-15T05:42:02;94682.88;;;6.90;71.79
20027;BME280;10174;42.688;23.344;2023-04-15T05:44:30;94715.56;;;7.08;69.91
20027;BME280;10174;42.688;23.344;2023-04-15T05:46:55;94688.28;;;7.01;70.00
20027;BME280;10174;42.688;23.344;2023-04-15T05:49:21;94723.25;;;7.31;70.12
20027;BME280;10174;42.688;23.344;2023-04-15T05:51:46;94607.16;;;6.69;69.83
20027;BME280;10174;42.688;23.344;2023-04-15T05:54:12;94703.78;;;7.41;69.07
20027;BME280;10174;42.688;23.344;2023-04-15T05:56:37;94705.19;;;7.49;69.28
20027;BME280;10174;42.688;23.344;2023-04-15T05:59:03;94712.19;;;7.60;68.32
20027;BME280;10174;42.688;23.344;2023-04-15T06:01:28;94725.06;;;7.69;67.91
20027;BME280;10174;42.688;23.344;2023-04-15T06:03:54;94741.75;;;7.86;67.37
20027;BME280;10174;42.688;23.344;2023-04-15T06:06:20;94739.38;;;7.95;67.02
20027;BME280;10174;42.688;23.344;2023-04-15T06:08:45;94720.91;;;7.93;66.52
20027;BME280;10174;42.688;23.344;2023-04-15T06:11:11;94737.56;;;8.11;66.33
20027;BME280;10174;42.688;23.344;2023-04-15T06:13:36;94656.09;;;7.65;66.44
20027;BME280;10174;42.688;23.344;2023-04-15T06:16:02;94743.81;;;8.32;66.48
20027;BME280;10174;42.688;23.344;2023-04-15T06:18:28;94634.75;;;7.76;65.99
20027;BME280;10174;42.688;23.344;2023-04-15T06:20:53;94623.97;;;7.60;65.83
20027;BME280;10174;42.688;23.344;2023-04-15T06:23:19;94728.00;;;8.25;66.41
20027;BME280;10174;42.688;23.344;2023-04-15T06:25:45;94747.91;;;8.45;66.51
20027;BME280;10174;42.688;23.344;2023-04-15T06:28:10;94753.28;;;8.55;66.25
20027;BME280;10174;42.688;23.344;2023-04-15T06:30:36;94756.78;;;8.61;66.22
20027;BME280;10174;42.688;23.344;2023-04-15T06:33:02;94762.44;;;8.64;66.59
20027;BME280;10174;42.688;23.344;2023-04-15T06:35:29;94653.56;;;8.12;65.58
20027;BME280;10174;42.688;23.344;2023-04-15T06:37:55;94736.19;;;8.66;65.20
20027;BME280;10174;42.688;23.344;2023-04-15T06:40:20;94737.25;;;8.65;64.97
20027;BME280;10174;42.688;23.344;2023-04-15T06:42:46;94770.50;;;8.80;65.00
20027;BME280;10174;42.688;23.344;2023-04-15T06:45:11;94641.03;;;8.17;64.59
20027;BME280;10174;42.688;23.344;2023-04-15T06:47:37;94772.66;;;9.08;64.25
20027;BME280;10174;42.688;23.344;2023-04-15T06:50:02;94770.28;;;9.17;64.06
20027;BME280;10174;42.688;23.344;2023-04-15T06:52:28;94656.38;;;8.58;63.66
20027;BME280;10174;42.688;23.344;2023-04-15T06:54:53;94751.00;;;9.15;63.52
20027;BME280;10174;42.688;23.344;2023-04-15T06:57:19;94761.44;;;9.32;62.89
20027;BME280;10174;42.688;23.344;2023-04-15T06:59:44;94765.19;;;9.31;62.74
20027;BME280;10174;42.688;23.344;2023-04-15T07:02:11;94773.22;;;9.47;62.50
20027;BME280;10174;42.688;23.344;2023-04-15T07:04:37;94745.88;;;9.50;61.93
20027;BME280;10174;42.688;23.344;2023-04-15T07:07:04;94673.81;;;8.97;61.72
20027;BME280;10174;42.688;23.344;2023-04-15T07:09:30;94662.81;;;9.03;61.72
20027;BME280;10174;42.688;23.344;2023-04-15T07:11:56;94778.53;;;9.88;60.94
20027;BME280;10174;42.688;23.344;2023-04-15T07:14:22;94779.59;;;10.02;61.13
20027;BME280;10174;42.688;23.344;2023-04-15T07:16:47;94735.06;;;9.96;59.91
20027;BME280;10174;42.688;23.344;2023-04-15T07:19:12;94766.94;;;10.83;58.20
20027;BME280;10174;42.688;23.344;2023-04-15T07:21:38;94743.78;;;12.82;51.83
20027;BME280;10174;42.688;23.344;2023-04-15T07:24:03;94771.94;;;15.47;46.00
20027;BME280;10174;42.688;23.344;2023-04-15T07:26:29;94763.41;;;17.75;40.15
20027;BME280;10174;42.688;23.344;2023-04-15T07:28:54;94774.13;;;17.54;38.92
20027;BME280;10174;42.688;23.344;2023-04-15T07:31:20;94785.81;;;17.20;39.56
20027;BME280;10174;42.688;23.344;2023-04-15T07:33:46;94722.34;;;18.42;37.27
20027;BME280;10174;42.688;23.344;2023-04-15T07:36:11;94783.41;;;17.88;38.56
20027;BME280;10174;42.688;23.344;2023-04-15T07:38:37;94718.84;;;17.85;38.59
20027;BME280;10174;42.688;23.344;2023-04-15T07:41:03;94776.34;;;17.00;40.45
20027;BME280;10174;42.688;23.344;2023-04-15T07:43:29;94694.78;;;14.76;43.93
20027;BME280;10174;42.688;23.344;2023-04-15T07:45:54;94740.47;;;14.36;45.89
20027;BME280;10174;42.688;23.344;2023-04-15T07:48:20;94754.53;;;15.39;43.76
20027;BME280;10174;42.688;23.344;2023-04-15T07:50:45;94753.47;;;15.49;44.23
20027;BME280;10174;42.688;23.344;2023-04-15T07:53:10;94781.03;;;15.14;44.47
20027;BME280;10174;42.688;23.344;2023-04-15T07:55:36;94776.44;;;15.15;44.09
20027;BME280;10174;42.688;23.344;2023-04-15T07:58:01;94783.22;;;15.26;44.01
20027;BME280;10174;42.688;23.344;2023-04-15T08:00:26;94768.44;;;16.63;41.23
20027;BME280;10174;42.688;23.344;2023-04-15T08:02:52;94773.50;;;18.87;37.54
20027;BME280;10174;42.688;23.344;2023-04-15T08:05:18;94753.84;;;20.20;34.29
20027;BME280;10174;42.688;23.344;2023-04-15T08:07:44;94765.63;;;19.57;35.01
20027;BME280;10174;42.688;23.344;2023-04-15T08:10:09;94777.56;;;20.66;34.10
20027;BME280;10174;42.688;23.344;2023-04-15T08:12:36;94664.31;;;20.22;32.95
20027;BME280;10174;42.688;23.344;2023-04-15T08:15:01;94782.13;;;20.16;34.22
20027;BME280;10174;42.688;23.344;2023-04-15T08:17:27;94781.66;;;20.14;33.74
20027;BME280;10174;42.688;23.344;2023-04-15T08:19:52;94752.09;;;20.03;33.09
20027;BME280;10174;42.688;23.344;2023-04-15T08:22:18;94782.88;;;21.24;30.68
20027;BME280;10174;42.688;23.344;2023-04-15T08:24:43;94770.72;;;21.21;30.15
20027;BME280;10174;42.688;23.344;2023-04-15T08:27:09;94663.88;;;20.70;29.06
20027;BME280;10174;42.688;23.344;2023-04-15T08:29:34;94779.75;;;20.85;30.00
20027;BME280;10174;42.688;23.344;2023-04-15T08:32:00;94768.69;;;20.10;30.68
20027;BME280;10174;42.688;23.344;2023-04-15T08:34:26;94745.88;;;20.27;30.82
20027;BME280;10174;42.688;23.344;2023-04-15T08:36:51;94716.88;;;19.44;34.03
20027;BME280;10174;42.688;23.344;2023-04-15T08:39:17;94766.88;;;20.02;33.47
20027;BME280;10174;42.688;23.344;2023-04-15T08:42:02;94717.91;;;19.72;35.00
20027;BME280;10174;42.688;23.344;2023-04-15T08:44:32;94769.91;;;20.46;34.18
20027;BME280;10174;42.688;23.344;2023-04-15T08:47:01;94744.34;;;21.00;32.82
20027;BME280;10174;42.688;23.344;2023-04-15T08:49:27;94766.13;;;22.06;31.26
20027;BME280;10174;42.688;23.344;2023-04-15T08:51:54;94770.84;;;21.94;32.16
20027;BME280;10174;42.688;23.344;2023-04-15T08:54:21;94659.81;;;22.69;29.00
20027;BME280;10174;42.688;23.344;2023-04-15T08:56:47;94750.41;;;22.64;29.71
20027;BME280;10174;42.688;23.344;2023-04-15T08:59:13;94640.31;;;21.46;30.51
20027;BME280;10174;42.688;23.344;2023-04-15T09:01:40;94629.19;;;21.39;30.13
20027;BME280;10174;42.688;23.344;2023-04-15T09:04:06;94678.09;;;22.49;28.31
20027;BME280;10174;42.688;23.344;2023-04-15T09:06:32;94736.50;;;22.09;28.85
20027;BME280;10174;42.688;23.344;2023-04-15T09:08:58;94648.06;;;20.63;29.77
20027;BME280;10174;42.688;23.344;2023-04-15T09:11:23;94675.53;;;18.87;32.34
20027;BME280;10174;42.688;23.344;2023-04-15T09:13:48;94738.72;;;19.77;32.51
20027;BME280;10174;42.688;23.344;2023-04-15T09:16:14;94673.28;;;18.89;33.28
20027;BME280;10174;42.688;23.344;2023-04-15T09:18:40;94730.06;;;19.96;32.48
20027;BME280;10174;42.688;23.344;2023-04-15T09:21:13;94690.94;;;21.84;29.84
20027;BME280;10174;42.688;23.344;2023-04-15T09:23:41;94730.03;;;22.97;28.60
20027;BME280;10174;42.688;23.344;2023-04-15T09:26:17;94737.97;;;21.90;29.28
20027;BME280;10174;42.688;23.344;2023-04-15T09:28:43;94726.84;;;21.42;30.06
20027;BME280;10174;42.688;23.344;2023-04-15T09:31:08;94736.88;;;21.38;29.54
20027;BME280;10174;42.688;23.344;2023-04-15T09:33:34;94604.66;;;19.38;30.77
20027;BME280;10174;42.688;23.344;2023-04-15T09:36:04;94728.22;;;20.00;31.08
20027;BME280;10174;42.688;23.344;2023-04-15T09:38:30;94708.06;;;20.51;30.25
20027;BME280;10174;42.688;23.344;2023-04-15T09:40:57;94742.72;;;19.80;31.48
20027;BME280;10174;42.688;23.344;2023-04-15T09:43:36;94737.03;;;19.30;31.61
20027;BME280;10174;42.688;23.344;2023-04-15T09:46:02;94742.47;;;19.09;32.36
20027;BME280;10174;42.688;23.344;2023-04-15T09:48:27;94715.97;;;19.18;31.70
20027;BME280;10174;42.688;23.344;2023-04-15T09:50:58;94734.56;;;18.95;31.99
20027;BME280;10174;42.688;23.344;2023-04-15T09:53:25;94625.47;;;17.98;32.70
20027;BME280;10174;42.688;23.344;2023-04-15T09:55:58;94733.16;;;18.12;33.34
20027;BME280;10174;42.688;23.344;2023-04-15T09:58:27;94602.06;;;16.59;34.29
20027;BME280;10174;42.688;23.344;2023-04-15T10:00:54;94730.72;;;17.37;34.57
20027;BME280;10174;42.688;23.344;2023-04-15T10:03:28;94632.38;;;17.22;33.23
20027;BME280;10174;42.688;23.344;2023-04-15T10:05:55;94731.75;;;18.44;32.19
20027;BME280;10174;42.688;23.344;2023-04-15T10:08:23;94735.56;;;18.52;31.83
20027;BME280;10174;42.688;23.344;2023-04-15T10:10:49;94730.00;;;18.40;32.31
20027;BME280;10174;42.688;23.344;2023-04-15T10:13:17;94726.78;;;18.85;31.59
20027;BME280;10174;42.688;23.344;2023-04-15T10:15:46;94717.13;;;20.05;29.91
20027;BME280;10174;42.688;23.344;2023-04-15T10:18:15;94609.03;;;19.18;29.99
20027;BME280;10174;42.688;23.344;2023-04-15T10:20:43;94704.72;;;21.19;26.99
20027;BME280;10174;42.688;23.344;2023-04-15T10:23:09;94689.88;;;20.92;27.11
20027;BME280;10174;42.688;23.344;2023-04-15T10:25:36;94694.94;;;21.06;27.82
20027;BME280;10174;42.688;23.344;2023-04-15T10:28:03;94691.13;;;22.08;26.64
20027;BME280;10174;42.688;23.344;2023-04-15T10:30:31;94696.97;;;22.70;26.28
20027;BME280;10174;42.688;23.344;2023-04-15T10:32:57;94671.13;;;22.19;25.90
20027;BME280;10174;42.688;23.344;2023-04-15T10:35:23;94569.16;;;20.58;26.01
20027;BME280;10174;42.688;23.344;2023-04-15T10:37:48;94665.13;;;20.60;28.04
20027;BME280;10174;42.688;23.344;2023-04-15T10:40:28;94692.13;;;21.02;27.16
20027;BME280;10174;42.688;23.344;2023-04-15T10:43:02;94680.56;;;21.33;27.63
20027;BME280;10174;42.688;23.344;2023-04-15T10:45:32;94688.41;;;21.35;27.33
20027;BME280;10174;42.688;23.344;2023-04-15T10:48:00;94697.97;;;20.88;27.24
20027;BME280;10174;42.688;23.344;2023-04-15T10:50:27;94673.28;;;20.23;27.88
20027;BME280;10174;42.688;23.344;2023-04-15T10:52:55;94662.44;;;19.89;28.13
20027;BME280;10174;42.688;23.344;2023-04-15T10:55:23;94692.56;;;19.93;27.66
20027;BME280;10174;42.688;23.344;2023-04-15T10:57:59;94688.03;;;19.09;28.79
20027;BME280;10174;42.688;23.344;2023-04-15T11:00:27;94580.59;;;18.22;27.50
20027;BME280;10174;42.688;23.344;2023-04-15T11:03:06;94670.66;;;18.12;28.29
20027;BME280;10174;42.688;23.344;2023-04-15T11:08:07;94670.47;;;18.17;30.87
20027;BME280;10174;42.688;23.344;2023-04-15T11:13:03;94682.38;;;21.70;26.56
20027;BME280;10174;42.688;23.344;2023-04-15T11:18:22;94661.72;;;22.84;24.56
20027;BME280;10174;42.688;23.344;2023-04-15T11:20:56;94578.50;;;22.02;25.34
20027;BME280;10174;42.688;23.344;2023-04-15T11:26:01;94574.63;;;21.71;24.23
20027;BME280;10174;42.688;23.344;2023-04-15T11:28:29;94662.56;;;22.53;24.51
20027;BME280;10174;42.688;23.344;2023-04-15T11:30:56;94666.56;;;22.23;24.90
20027;BME280;10174;42.688;23.344;2023-04-15T11:33:22;94673.31;;;20.60;27.16
20027;BME280;10174;42.688;23.344;2023-04-15T11:35:48;94676.13;;;20.14;27.61
20027;BME280;10174;42.688;23.344;2023-04-15T11:38:14;94622.53;;;19.72;27.77
20027;BME280;10174;42.688;23.344;2023-04-15T11:40:41;94678.47;;;21.43;26.83
20027;BME280;10174;42.688;23.344;2023-04-15T11:45:47;94680.72;;;22.29;25.29
20027;BME280;10174;42.688;23.344;2023-04-15T11:48:13;94608.78;;;21.93;22.23
20027;BME280;10174;42.688;23.344;2023-04-15T11:50:39;94667.91;;;22.81;21.33
20027;BME280;10174;42.688;23.344;2023-04-15T11:53:06;94653.31;;;22.26;21.20
20027;BME280;10174;42.688;23.344;2023-04-15T11:55:46;94663.84;;;22.75;19.50
20027;BME280;10174;42.688;23.344;2023-04-15T11:58:22;94665.44;;;21.80;22.77
20027;BME280;10174;42.688;23.344;2023-04-15T12:00:51;94656.53;;;21.83;22.06
20027;BME280;10174;42.688;23.344;2023-04-15T12:08:56;94612.94;;;20.61;22.26
20027;BME280;10174;42.688;23.344;2023-04-15T12:13:54;94667.63;;;21.46;21.66
20027;BME280;10174;42.688;23.344;2023-04-15T12:16:21;94638.63;;;21.13;21.66
20027;BME280;10174;42.688;23.344;2023-04-15T12:18:53;94645.53;;;20.58;24.75
20027;BME280;10174;42.688;23.344;2023-04-15T12:21:23;94636.72;;;20.24;25.50
20027;BME280;10174;42.688;23.344;2023-04-15T12:23:53;94608.66;;;20.23;25.32
20027;BME280;10174;42.688;23.344;2023-04-15T12:26:26;94559.38;;;19.91;24.28
20027;BME280;10174;42.688;23.344;2023-04-15T12:29:00;94636.47;;;20.17;25.26
20027;BME280;10174;42.688;23.344;2023-04-15T12:31:26;94638.63;;;20.11;25.80
20027;BME280;10174;42.688;23.344;2023-04-15T12:33:54;94649.31;;;20.28;25.21
20027;BME280;10174;42.688;23.344;2023-04-15T12:36:19;94661.69;;;20.01;25.48
20027;BME280;10174;42.688;23.344;2023-04-15T12:38:45;94654.44;;;20.30;24.28
20027;BME280;10174;42.688;23.344;2023-04-15T12:41:10;94635.91;;;20.73;23.17
20027;BME280;10174;42.688;23.344;2023-04-15T12:43:36;94650.09;;;20.54;24.45
20027;BME280;10174;42.688;23.344;2023-04-15T12:46:01;94576.25;;;20.09;23.18
20027;BME280;10174;42.688;23.344;2023-04-15T12:48:27;94601.13;;;20.08;23.44
20027;BME280;10174;42.688;23.344;2023-04-15T12:50:52;94671.47;;;20.64;23.65
20027;BME280;10174;42.688;23.344;2023-04-15T12:53:17;94669.19;;;20.91;23.24
20027;BME280;10174;42.688;23.344;2023-04-15T12:55:43;94666.47;;;20.17;23.88
20027;BME280;10174;42.688;23.344;2023-04-15T12:58:08;94672.78;;;19.84;24.60
20027;BME280;10174;42.688;23.344;2023-04-15T13:00:35;94598.69;;;19.23;25.35
20027;BME280;10174;42.688;23.344;2023-04-15T13:03:01;94655.53;;;19.92;25.48
20027;BME280;10174;42.688;23.344;2023-04-15T13:05:27;94666.56;;;20.08;25.38
20027;BME280;10174;42.688;23.344;2023-04-15T13:07:52;94669.72;;;19.52;25.84
20027;BME280;10174;42.688;23.344;2023-04-15T13:10:18;94633.75;;;19.58;25.88
20027;BME280;10174;42.688;23.344;2023-04-15T13:12:43;94666.75;;;19.45;25.78